M I D A S
Marine Information and Data Acquisition System
Tripno 1556 of the Zeeleeuw from 2008-09-01 06:18:01 to 2008-09-01 11:25:58
Back to CruiseResearch ActivitiesStationsMapUnderway DataData graphs

EquipmentUnitsComment
TimeDGPSUTC
LatitudeDGPSDM.mWGS84
LongitudeDGPSDM.mWGS84
TemperatureSBE03/SBE38deg celciusITS90
ConductivitySBE21S/mITS90
SalinitySBE21 Practical Salinity Units
ChlorophylAChelsea fluorimeterg/lCalibrated in Aceton
Missing or incorrect values are displayed as -999
Sea surface data collected by the RV Zeeleeuw from 2008-09-01 06:21:17 to 2008-09-01 11:32:14
Time Latitude Longitude Temperature Conductivity Salinity ChlorophylA
2008-09-01 06:22:21 51°13.644 2°55.982 20.3375 0.072462 0.362115 -1.209513
2008-09-01 06:23:22 51°13.677 2°55.872 20.361 0.072462 0.362149 -1.209513
2008-09-01 06:24:21 51°13.703 2°55.783 20.357 0.072462 0.362211 -1.209513
2008-09-01 06:25:21 51°13.712 2°55.724 20.3656 0.072462 0.362233 -1.209513
2008-09-01 06:26:21 51°13.715 2°55.72 20.3533 0.072462 0.36229 -1.209513
2008-09-01 06:27:21 51°13.727 2°55.704 20.3772 0.072462 0.362352 -1.209513
2008-09-01 06:28:21 51°13.826 2°55.636 20.3246 0.072462 0.362398 -1.209513
2008-09-01 06:29:21 51°13.961 2°55.543 20.3423 0.072462 0.362454 -1.209513
2008-09-01 06:30:20 51°14.094 2°55.445 20.3681 0.072462 0.362517 -1.209513
2008-09-01 06:31:20 51°14.22 2°55.319 20.3694 0.072462 0.362579 -1.209513
2008-09-01 06:32:19 51°14.332 2°55.139 20.3576 0.072462 0.362636 -1.209513
2008-09-01 06:33:18 51°14.422 2°54.915 20.2999 0.072462 0.362704 -1.209513
2008-09-01 06:34:18 51°14.414 2°54.642 20.2979 0.072462 0.362755 -1.209513
2008-09-01 06:35:18 51°14.34 2°54.381 20.2768 0.072462 0.3628 -1.209513
2008-09-01 06:36:18 51°14.251 2°54.121 20.2726 0.072359 0.362326 -1.209513
2008-09-01 06:37:18 51°14.156 2°53.85 20.27 0.072359 0.362372 -1.209513
2008-09-01 06:38:18 51°14.055 2°53.586 20.2718 0.072359 0.362434 -1.209513
2008-09-01 06:39:18 51°13.958 2°53.319 20.2772 0.072359 0.362491 -1.209513
2008-09-01 06:40:17 51°13.86 2°53.061 20.2774 0.072359 0.362548 -1.209513
2008-09-01 06:41:17 51°13.763 2°52.796 20.2859 0.072359 0.362593 -1.209513
2008-09-01 06:42:17 51°13.666 2°52.529 20.2982 0.072359 0.36265 -1.209513
2008-09-01 06:43:17 51°13.566 2°52.265 20.3068 0.072359 0.362701 -1.209513
2008-09-01 06:44:17 51°13.465 2°51.99 20.313 0.072359 0.362753 -1.209513
2008-09-01 06:45:17 51°13.359 2°51.712 20.3077 0.072359 0.362798 -1.209513
2008-09-01 06:46:17 51°13.255 2°51.431 20.3295 0.072359 0.362849 -1.209513
2008-09-01 06:47:17 51°13.152 2°51.146 20.328 0.072359 0.362901 -1.209513
2008-09-01 06:48:17 51°13.049 2°50.862 20.334 0.072359 0.362941 -1.209513
2008-09-01 06:49:17 51°12.945 2°50.579 20.3412 0.072359 0.362986 -1.209513
2008-09-01 06:50:17 51°12.84 2°50.296 20.3552 0.072359 0.363032 -1.209513
2008-09-01 06:51:17 51°12.741 2°50.01 20.3673 0.072359 0.363089 -1.209513
2008-09-01 06:52:17 51°12.657 2°49.71 20.3735 0.072359 0.363129 -1.174688
2008-09-01 06:53:17 51°12.577 2°49.404 20.374 0.072256 0.362637 -1.209513
2008-09-01 06:54:17 51°12.494 2°49.1 20.3898 0.072256 0.362682 -1.174688
2008-09-01 06:55:17 51°12.411 2°48.794 20.3953 0.072256 0.362722 -1.209513
2008-09-01 06:56:17 51°12.327 2°48.491 20.4053 0.072256 0.362773 -1.209513
2008-09-01 06:57:17 51°12.241 2°48.187 20.4232 0.072256 0.362813 -1.209513
2008-09-01 06:58:17 51°12.158 2°47.882 20.4335 0.072256 0.362859 -1.209513
2008-09-01 06:59:17 51°12.073 2°47.577 20.441 0.072256 0.362899 -1.209513
2008-09-01 07:00:17 51°11.989 2°47.27 20.4428 0.072256 0.362945 -1.209513
2008-09-01 07:01:17 51°11.909 2°46.96 20.4514 0.072256 0.362979 -1.209513
2008-09-01 07:02:17 51°11.827 2°46.65 20.4602 0.072256 0.363019 -1.209513
2008-09-01 07:03:17 51°11.748 2°46.336 20.48 0.072256 0.363065 -1.209513
2008-09-01 07:04:17 51°11.663 2°46.027 20.4875 0.072256 0.363105 -1.209513
2008-09-01 07:05:17 51°11.584 2°45.713 20.5027 0.072256 0.363139 -1.209513
2008-09-01 07:06:17 51°11.502 2°45.403 20.5082 0.072153 0.362652 -1.209513
2008-09-01 07:07:17 51°11.421 2°45.092 20.5218 0.072153 0.362692 -1.209513
2008-09-01 07:08:17 51°11.347 2°44.775 20.5255 0.072153 0.362737 -1.209513
2008-09-01 07:09:17 51°11.279 2°44.454 20.5354 0.072153 0.362777 -1.209513
2008-09-01 07:10:17 51°11.209 2°44.138 20.5506 0.072153 0.362812 -1.209513
2008-09-01 07:11:17 51°11.147 2°43.816 20.5672 0.072153 0.362857 -1.209513
2008-09-01 07:12:17 51°11.088 2°43.492 20.5642 0.072154 0.362897 -1.174688
2008-09-01 07:13:17 51°11.037 2°43.166 20.578 0.072154 0.362938 -1.209513
2008-09-01 07:14:17 51°10.995 2°42.836 20.5919 0.072154 0.362983 -1.209513
2008-09-01 07:15:17 51°10.949 2°42.507 20.6071 0.072154 0.363023 -1.209513
2008-09-01 07:16:17 51°10.9 2°42.18 20.6157 0.072154 0.363069 -1.209513
2008-09-01 07:17:17 51°10.855 2°41.853 20.626 0.072154 0.363109 -1.209513
2008-09-01 07:18:17 51°10.812 2°41.524 20.6403 0.072154 0.363155 -1.209513
2008-09-01 07:19:17 51°10.767 2°41.194 20.6494 0.072051 0.362667 -1.209513
2008-09-01 07:20:17 51°10.731 2°40.883 20.6691 0.072051 0.362713 -1.209513
2008-09-01 07:21:17 51°10.696 2°40.671 20.6693 0.072051 0.362759 -1.209513
2008-09-01 07:22:17 51°10.708 2°40.574 20.678 0.072051 0.36281 -1.209513
2008-09-01 07:23:17 51°10.711 2°40.562 20.6933 0.072051 0.36285 -1.209513
2008-09-01 07:24:17 51°10.709 2°40.562 20.7096 0.072051 0.362896 -1.209513
2008-09-01 07:25:17 51°10.707 2°40.562 20.7138 0.072051 0.362954 -1.209513
2008-09-01 07:26:17 51°10.705 2°40.56 20.7259 0.072051 0.363022 -1.10504
2008-09-01 07:27:17 51°10.703 2°40.558 20.7461 0.072051 0.363103 -1.209513
2008-09-01 07:28:17 51°10.7 2°40.556 20.765 0.072051 0.363172 -1.209513
2008-09-01 07:29:17 51°10.696 2°40.554 20.7907 0.071948 0.362729 -1.209513
2008-09-01 07:30:17 51°10.692 2°40.554 20.8105 0.071948 0.362803 -1.209513
2008-09-01 07:31:17 51°10.687 2°40.553 20.835 0.071948 0.36289 -1.209513
2008-09-01 07:32:17 51°10.713 2°40.566 20.8383 0.071948 0.362964 -1.209513
2008-09-01 07:33:17 51°10.821 2°40.711 20.8647 0.071948 0.363073 -1.209513
2008-09-01 07:34:18 51°10.954 2°40.911 20.8768 0.071948 0.363165 -1.209513
2008-09-01 07:35:18 51°11.069 2°41.133 20.8128 0.071948 0.363252 -1.174688
2008-09-01 07:36:18 51°11.182 2°41.359 22.8053 0.071845 0.362808 -1.209513
2008-09-01 07:37:18 51°11.294 2°41.585 20.8812 0.071845 0.362826 -1.209513
2008-09-01 07:38:19 51°11.408 2°41.821 20.8696 0.071845 0.362895 -1.209513
2008-09-01 07:39:18 51°11.518 2°42.052 20.9189 0.071845 0.362981 -1.209513
2008-09-01 07:40:19 51°11.634 2°42.29 20.8854 0.071845 0.363056 -1.209513
2008-09-01 07:41:19 51°11.746 2°42.52 20.9496 0.071845 0.363108 -1.244337
2008-09-01 07:42:19 51°11.863 2°42.744 20.9604 0.071845 0.36316 -1.244337
2008-09-01 07:43:19 51°11.982 2°42.962 20.944 0.071845 0.363229 -1.209513
2008-09-01 07:44:19 51°12.101 2°43.181 20.9572 0.071845 0.363315 -1.244337
2008-09-01 07:45:19 51°12.214 2°43.401 20.9399 0.071845 0.36339 -1.244337
2008-09-01 07:46:19 51°12.331 2°43.621 20.9455 0.071845 0.363408 -1.209513
2008-09-01 07:47:19 51°12.447 2°43.842 20.966 0.071742 0.36294 -1.244337
2008-09-01 07:48:19 51°12.562 2°44.062 20.9099 0.071742 0.363027 -1.279161
2008-09-01 07:49:19 51°12.679 2°44.279 20.9861 0.071742 0.363067 -1.209513
2008-09-01 07:50:19 51°12.794 2°44.497 21.0118 0.071742 0.363189 -1.244337
2008-09-01 07:51:19 51°12.91 2°44.718 20.955 0.071742 0.363235 -1.209513
2008-09-01 07:52:19 51°13.031 2°44.933 21.0399 0.071742 0.363258 -1.209513
2008-09-01 07:53:19 51°13.156 2°45.139 21.041 0.071742 0.36335 -1.244337
2008-09-01 07:54:19 51°13.29 2°45.326 21.0369 0.071742 0.363443 -1.209513
2008-09-01 07:55:19 51°13.442 2°45.466 21.0402 0.071742 0.363489 -1.209513
2008-09-01 07:56:20 51°13.618 2°45.532 21.0475 0.071742 0.36357 -1.209513
2008-09-01 07:57:20 51°13.793 2°45.572 21.0668 0.071742 0.363628 -1.244337
2008-09-01 07:58:20 51°13.975 2°45.609 21.0912 0.071639 0.363172 -1.244337
2008-09-01 07:59:20 51°14.155 2°45.648 21.0924 0.071639 0.363259 -1.244337
2008-09-01 08:00:20 51°14.333 2°45.687 21.1116 0.071639 0.36334 -1.209513
2008-09-01 08:01:20 51°14.512 2°45.698 21.1208 0.071639 0.363409 -1.209513
2008-09-01 08:02:20 51°14.691 2°45.685 21.1342 0.071639 0.363502 -1.209513
2008-09-01 08:03:20 51°14.876 2°45.677 21.1451 0.071639 0.363566 -1.209513
2008-09-01 08:04:20 51°15.057 2°45.67 21.1616 0.071639 0.363665 -1.209513
2008-09-01 08:05:20 51°15.237 2°45.66 21.1691 0.071639 0.363757 -1.209513
2008-09-01 08:06:20 51°15.419 2°45.647 21.1828 0.071639 0.363845 -1.209513
2008-09-01 08:07:20 51°15.6 2°45.637 21.1973 0.071639 0.363949 -1.209513
2008-09-01 08:08:20 51°15.783 2°45.634 21.2088 0.071639 0.364031 -1.209513
2008-09-01 08:09:21 51°15.966 2°45.637 21.2204 0.071639 0.364118 -1.209513
2008-09-01 08:10:20 51°16.141 2°45.642 21.2335 0.071639 0.364211 -1.209513
2008-09-01 08:11:21 51°16.318 2°45.648 21.2462 0.071639 0.364305 -1.174688
2008-09-01 08:12:21 51°16.491 2°45.65 21.2577 0.071639 0.364392 -1.174688
2008-09-01 08:13:21 51°16.663 2°45.652 21.2687 0.071639 0.364497 -1.209513
2008-09-01 08:14:21 51°16.836 2°45.639 21.2776 0.071536 0.364057 -1.209513
2008-09-01 08:15:21 51°17.007 2°45.628 21.2932 0.071536 0.364173 -1.174688
2008-09-01 08:16:21 51°17.179 2°45.608 21.3015 0.071536 0.364249 -1.174688
2008-09-01 08:17:21 51°17.354 2°45.578 21.3136 0.071536 0.364354 -1.174688
2008-09-01 08:18:21 51°17.528 2°45.546 21.3257 0.071536 0.364465 -1.209513
2008-09-01 08:19:21 51°17.703 2°45.509 21.3402 0.071536 0.364565 -1.174688
2008-09-01 08:20:21 51°17.874 2°45.474 21.349 0.071536 0.36467 -1.174688
2008-09-01 08:21:22 51°18.05 2°45.436 21.3617 0.071536 0.364764 -1.174688
2008-09-01 08:22:21 51°18.22 2°45.398 21.3696 0.071433 0.364352 -1.174688
2008-09-01 08:23:22 51°18.396 2°45.356 21.382 0.071433 0.364481 -1.174688
2008-09-01 08:24:22 51°18.569 2°45.328 21.3955 0.071433 0.364581 -1.174688
2008-09-01 08:25:22 51°18.744 2°45.304 21.4041 0.071433 0.364698 -1.174688
2008-09-01 08:26:22 51°18.917 2°45.287 21.414 0.071433 0.364798 -1.174688
2008-09-01 08:27:22 51°19.093 2°45.283 21.4237 0.071433 0.364915 -1.174688
2008-09-01 08:28:22 51°19.233 2°45.293 21.4637 0.071433 0.365021 -1.174688
2008-09-01 08:29:22 51°19.295 2°45.318 21.454 0.071433 0.365133 -1.174688
2008-09-01 08:30:22 51°19.347 2°45.336 21.4895 0.071433 0.365245 -1.174688
2008-09-01 08:31:22 51°19.362 2°45.337 21.508 0.071433 0.365368 -1.174688
2008-09-01 08:32:22 51°19.363 2°45.322 21.5308 0.071433 0.365445 -1.174688
2008-09-01 08:33:22 51°19.36 2°45.306 21.5508 0.071536 0.366065 -1.174688
2008-09-01 08:34:22 51°19.356 2°45.296 21.5735 0.071536 0.366183 -1.174688
2008-09-01 08:35:22 51°19.35 2°45.282 21.6036 0.071536 0.366301 -1.174688
2008-09-01 08:36:22 51°19.438 2°45.284 21.6102 0.071536 0.36639 -1.174688
2008-09-01 08:37:22 51°19.589 2°45.369 21.6401 0.071536 0.366562 -1.174688
2008-09-01 08:38:22 51°19.757 2°45.441 21.6742 0.071536 0.366657 -1.174688
2008-09-01 08:39:22 51°19.929 2°45.491 21.6936 0.071536 0.366704 -1.174688
2008-09-01 08:40:22 51°20.093 2°45.569 21.7191 0.071639 0.367373 -1.174688
2008-09-01 08:41:22 51°20.231 2°45.653 21.7495 0.071536 0.366888 -1.174688
2008-09-01 08:42:22 51°20.284 2°45.659 21.7733 0.071536 0.366936 -1.174688
2008-09-01 08:43:22 51°20.282 2°45.638 21.7957 0.071536 0.366977 -1.174688
2008-09-01 08:44:22 51°20.274 2°45.622 21.8221 0.071536 0.367085 -1.174688
2008-09-01 08:45:22 51°20.263 2°45.608 21.8486 0.071536 0.36718 -1.174688
2008-09-01 08:46:22 51°20.251 2°45.594 21.8784 0.071536 0.367269 -1.174688
2008-09-01 08:47:22 51°20.239 2°45.581 21.9002 0.071536 0.367364 -1.174688
2008-09-01 08:48:22 51°20.226 2°45.57 21.9223 0.071536 0.367478 -1.174688
2008-09-01 08:49:22 51°20.213 2°45.558 21.9521 0.071536 0.367573 -1.174688
2008-09-01 08:50:22 51°20.205 2°45.544 21.9901 0.071536 0.367675 -1.174688
2008-09-01 08:51:22 51°20.255 2°45.488 21.9735 0.071536 0.367764 -1.174688
2008-09-01 08:52:22 51°20.371 2°45.499 22.006 0.071536 0.367902 -1.174688
2008-09-01 08:53:22 51°20.541 2°45.518 22.0461 0.071536 0.368063 -1.174688
2008-09-01 08:54:22 51°20.713 2°45.543 22.0863 0.071536 0.368177 -1.10504
2008-09-01 08:55:22 51°20.889 2°45.57 22.1032 0.071536 0.368279 -1.174688
2008-09-01 08:56:22 51°21.065 2°45.601 21.6599 0.071433 0.367799 -1.174688
2008-09-01 08:57:22 51°21.243 2°45.632 21.7854 0.071433 0.367877 -1.174688
2008-09-01 08:58:22 51°21.422 2°45.667 21.737 0.071433 0.367937 -1.174688
2008-09-01 08:59:22 51°21.6 2°45.703 21.7403 0.071433 0.368026 -1.174688
2008-09-01 09:00:22 51°21.777 2°45.744 21.7622 0.071433 0.368158 -1.174688
2008-09-01 09:01:21 51°21.948 2°45.78 21.8891 0.071433 0.368218 -1.174688
2008-09-01 09:02:21 51°22.123 2°45.828 21.9002 0.071433 0.368333 -1.174688
2008-09-01 09:03:20 51°22.285 2°45.914 21.9406 0.071433 0.368447 -1.174688
2008-09-01 09:04:19 51°22.444 2°46.013 21.8495 0.071433 0.368549 -1.174688
2008-09-01 09:05:18 51°22.601 2°46.116 21.9377 0.07133 0.36805 -1.174688
2008-09-01 09:06:18 51°22.758 2°46.231 21.8114 0.071331 0.368212 -1.174688
2008-09-01 09:07:18 51°22.916 2°46.345 21.9349 0.07133 0.368206 -1.174688
2008-09-01 09:08:18 51°23.075 2°46.451 21.8169 0.071331 0.368381 -1.209513
2008-09-01 09:09:18 51°23.231 2°46.565 21.8273 0.071331 0.368387 -1.174688
2008-09-01 09:10:18 51°23.387 2°46.68 21.8606 0.071331 0.368531 -1.139864
2008-09-01 09:11:18 51°23.546 2°46.789 21.8654 0.071228 0.368025 -1.174688
2008-09-01 09:12:18 51°23.706 2°46.896 21.9847 0.071228 0.368122 -1.174688
2008-09-01 09:13:18 51°23.866 2°46.998 21.932 0.071228 0.368206 -1.10504
2008-09-01 09:14:18 51°24.023 2°47.106 21.9675 0.071228 0.36823 -1.174688
2008-09-01 09:15:18 51°24.179 2°47.219 21.9783 0.071228 0.368321 -1.174688
2008-09-01 09:16:18 51°24.333 2°47.334 21.9927 0.071228 0.368478 -1.174688
2008-09-01 09:17:18 51°24.489 2°47.453 22.0241 0.071125 0.367965 -1.139864
2008-09-01 09:18:18 51°24.645 2°47.566 21.9408 0.071125 0.368086 -1.139864
2008-09-01 09:19:18 51°24.798 2°47.686 21.9775 0.071125 0.368158 -1.174688
2008-09-01 09:20:18 51°24.952 2°47.808 22.0005 0.071125 0.368249 -1.174688
2008-09-01 09:21:18 51°25.106 2°47.931 22.0204 0.071125 0.368351 -1.139864
2008-09-01 09:22:18 51°25.26 2°48.053 22.0178 0.071125 0.368394 -1.139864
2008-09-01 09:23:18 51°25.418 2°48.179 22.0941 0.071022 0.367917 -1.139864
2008-09-01 09:24:18 51°25.574 2°48.303 22.0248 0.071022 0.368013 -1.139864
2008-09-01 09:25:18 51°25.727 2°48.432 22.1123 0.071022 0.368104 -1.139864
2008-09-01 09:26:18 51°25.88 2°48.551 22.0805 0.071022 0.368165 -1.174688
2008-09-01 09:27:18 51°26.029 2°48.691 22.132 0.071022 0.368274 -1.139864
2008-09-01 09:28:18 51°26.181 2°48.819 22.1342 0.071022 0.368322 -1.174688
2008-09-01 09:29:18 51°26.332 2°48.949 22.126 0.071022 0.368461 -1.174688
2008-09-01 09:30:18 51°26.475 2°49.072 22.1165 0.071022 0.36851 -1.174688
2008-09-01 09:31:18 51°26.574 2°49.153 22.2334 0.071022 0.368552 -1.174688
2008-09-01 09:32:18 51°26.615 2°49.214 22.1797 0.070919 0.368087 -1.174688
2008-09-01 09:33:18 51°26.677 2°49.297 22.2531 0.070919 0.36819 -1.174688
2008-09-01 09:34:18 51°26.748 2°49.399 22.2651 0.070919 0.368275 -1.174688
2008-09-01 09:35:18 51°26.787 2°49.403 22.2987 0.070919 0.368347 -1.139864
2008-09-01 09:36:18 51°26.776 2°49.386 22.3312 0.070919 0.36839 -1.174688
2008-09-01 09:37:18 51°26.754 2°49.376 22.3616 0.070919 0.368469 -1.174688
2008-09-01 09:38:18 51°26.733 2°49.364 22.3945 0.070919 0.368542 -1.139864
2008-09-01 09:39:18 51°26.715 2°49.352 22.4142 0.070919 0.36859 -1.174688
2008-09-01 09:40:18 51°26.7 2°49.34 22.4503 0.070919 0.368663 -1.174688
2008-09-01 09:41:18 51°26.7 2°49.322 22.4842 0.070816 0.368185 -1.174688
2008-09-01 09:42:18 51°26.743 2°49.375 22.4788 0.070816 0.368282 -1.174688
2008-09-01 09:43:18 51°26.671 2°49.496 22.5316 0.070816 0.368306 -1.174688
2008-09-01 09:44:18 51°26.542 2°49.619 22.5624 0.070816 0.368355 -1.174688
2008-09-01 09:45:18 51°26.396 2°49.767 21.8839 0.070816 0.368507 -1.139864
2008-09-01 09:46:18 51°26.242 2°49.921 22.112 0.070816 0.368507 -1.139864
2008-09-01 09:47:18 51°26.089 2°50.076 21.9436 0.070816 0.368568 -1.174688
2008-09-01 09:48:18 51°25.929 2°50.226 22.3175 0.070713 0.368076 -1.174688
2008-09-01 09:49:18 51°25.737 2°50.329 21.9814 0.070713 0.368149 -1.139864
2008-09-01 09:50:18 51°25.536 2°50.413 22.2885 0.070713 0.368168 -1.139864
2008-09-01 09:51:18 51°25.339 2°50.511 22.049 0.070713 0.368253 -1.174688
2008-09-01 09:52:18 51°25.141 2°50.609 22.1459 0.070713 0.368308 -1.139864
2008-09-01 09:53:18 51°24.948 2°50.722 22.2925 0.070713 0.36843 -1.139864
2008-09-01 09:54:18 51°24.756 2°50.836 22.0453 0.07061 0.367919 -1.139864
2008-09-01 09:55:18 51°24.564 2°50.952 22.1222 0.07061 0.367993 -1.139864
2008-09-01 09:56:18 51°24.37 2°51.064 22.147 0.07061 0.368029 -1.174688
2008-09-01 09:57:18 51°24.171 2°51.163 22.2252 0.07061 0.368133 -1.10504
2008-09-01 09:58:18 51°23.973 2°51.262 22.3141 0.07061 0.368194 -1.139864
2008-09-01 09:59:18 51°23.798 2°51.365 22.1593 0.07061 0.368237 -1.139864
2008-09-01 10:00:18 51°23.695 2°51.415 22.2095 0.070507 0.367781 -1.139864
2008-09-01 10:01:18 51°23.608 2°51.447 22.2689 0.070507 0.36786 -1.139864
2008-09-01 10:02:18 51°23.53 2°51.456 22.2619 0.070507 0.367939 -1.139864
2008-09-01 10:03:18 51°23.488 2°51.485 22.4309 0.070507 0.368031 -1.139864
2008-09-01 10:04:18 51°23.48 2°51.478 22.3992 0.070507 0.368074 -1.139864
2008-09-01 10:05:18 51°23.468 2°51.474 22.4714 0.070507 0.368141 -1.139864
2008-09-01 10:06:18 51°23.454 2°51.473 22.4985 0.070507 0.368184 -1.139864
2008-09-01 10:07:18 51°23.438 2°51.472 22.5255 0.070404 0.367672 -1.139864
2008-09-01 10:08:18 51°23.37 2°51.488 22.5785 0.070404 0.367703 -1.139864
2008-09-01 10:09:18 51°23.226 2°51.497 22.3939 0.070404 0.367752 -1.139864
2008-09-01 10:10:18 51°23.105 2°51.528 22.2083 0.070404 0.3678 -1.174688
2008-09-01 10:11:18 51°23.042 2°51.631 22.3225 0.070404 0.367831 -1.139864
2008-09-01 10:12:18 51°22.967 2°51.733 22.3408 0.070404 0.367849 -1.139864
2008-09-01 10:13:18 51°22.862 2°51.831 22.4889 0.070404 0.367898 -1.139864
2008-09-01 10:14:18 51°22.706 2°51.965 22.4608 0.070404 0.367984 -1.139864
2008-09-01 10:15:18 51°22.506 2°52.009 22.4384 0.070404 0.368002 -1.139864
2008-09-01 10:16:18 51°22.302 2°51.935 22.3707 0.070404 0.368033 -1.139864
2008-09-01 10:17:18 51°22.096 2°51.855 22.3366 0.070302 0.367533 -1.139864
2008-09-01 10:18:18 51°21.89 2°51.798 22.4522 0.070302 0.367619 -1.174688
2008-09-01 10:19:18 51°21.681 2°51.748 22.512 0.070302 0.367692 -1.139864
2008-09-01 10:20:18 51°21.472 2°51.704 22.4633 0.070302 0.367747 -1.174688
2008-09-01 10:21:18 51°21.262 2°51.657 22.5115 0.070302 0.367827 -1.139864
2008-09-01 10:22:18 51°21.054 2°51.613 22.4402 0.070302 0.367925 -1.139864
2008-09-01 10:23:18 51°20.847 2°51.57 22.5105 0.070302 0.367986 -1.139864
2008-09-01 10:24:18 51°20.641 2°51.531 22.4781 0.070199 0.367492 -1.139864
2008-09-01 10:25:18 51°20.435 2°51.491 22.5476 0.070199 0.367565 -1.139864
2008-09-01 10:26:18 51°20.229 2°51.459 22.5282 0.070199 0.367633 -1.174688
2008-09-01 10:27:18 51°20.022 2°51.431 22.5525 0.070199 0.3677 -1.139864
2008-09-01 10:28:18 51°19.812 2°51.405 22.5532 0.070199 0.367786 -1.139864
2008-09-01 10:29:18 51°19.603 2°51.374 22.5757 0.070199 0.36786 -1.174688
2008-09-01 10:30:18 51°19.392 2°51.35 22.6193 0.070096 0.367371 -1.139864
2008-09-01 10:31:18 51°19.179 2°51.336 22.5508 0.070096 0.367444 -1.174688
2008-09-01 10:32:18 51°18.967 2°51.324 22.5436 0.070096 0.367518 -1.174688
2008-09-01 10:33:18 51°18.753 2°51.323 22.5973 0.070096 0.367592 -1.174688
2008-09-01 10:34:18 51°18.54 2°51.324 22.5673 0.070096 0.36769 -1.174688
2008-09-01 10:35:18 51°18.33 2°51.324 22.6516 0.069993 0.36725 -1.139864
2008-09-01 10:36:18 51°18.119 2°51.328 22.5592 0.069993 0.367342 -1.139864
2008-09-01 10:37:18 51°17.91 2°51.333 22.6445 0.069993 0.367385 -1.174688
2008-09-01 10:38:18 51°17.7 2°51.346 22.5764 0.069993 0.36744 -1.139864
2008-09-01 10:39:18 51°17.495 2°51.362 22.6222 0.069993 0.367514 -1.174688
2008-09-01 10:40:18 51°17.289 2°51.38 22.6545 0.06989 0.367061 -1.139864
2008-09-01 10:41:18 51°17.084 2°51.383 22.6796 0.06989 0.36711 -1.139864
2008-09-01 10:42:18 51°16.884 2°51.301 22.6814 0.06989 0.367172 -1.139864
2008-09-01 10:43:18 51°16.686 2°51.206 22.6818 0.06989 0.367258 -1.174688
2008-09-01 10:44:18 51°16.487 2°51.116 22.6876 0.06989 0.367363 -1.174688
2008-09-01 10:45:18 51°16.287 2°51.036 22.6939 0.06989 0.367443 -1.139864
2008-09-01 10:46:18 51°16.085 2°50.967 22.7036 0.06989 0.367523 -1.174688
2008-09-01 10:47:18 51°15.884 2°50.898 22.7289 0.06989 0.367609 -1.174688
2008-09-01 10:48:18 51°15.683 2°50.833 22.738 0.069787 0.367155 -1.174688
2008-09-01 10:49:18 51°15.483 2°50.765 22.744 0.069787 0.367248 -1.139864
2008-09-01 10:50:18 51°15.283 2°50.696 22.7516 0.069787 0.367346 -1.174688
2008-09-01 10:51:18 51°15.083 2°50.63 22.7662 0.069787 0.367464 -1.139864
2008-09-01 10:52:18 51°14.883 2°50.562 22.775 0.069787 0.367556 -1.139864
2008-09-01 10:53:18 51°14.683 2°50.494 22.788 0.069787 0.36763 -1.174688
2008-09-01 10:54:18 51°14.509 2°50.43 22.7965 0.069787 0.367705 -1.174688
2008-09-01 10:55:18 51°14.389 2°50.392 22.8029 0.069787 0.367803 -1.139864
2008-09-01 10:56:18 51°14.283 2°50.366 22.8473 0.069787 0.367902 -1.139864
2008-09-01 10:57:18 51°14.182 2°50.339 22.8551 0.069787 0.367983 -1.139864
2008-09-01 10:58:18 51°14.133 2°50.328 22.8737 0.069787 0.368057 -1.139864
2008-09-01 10:59:20 51°14.128 2°50.34 22.8986 0.069787 0.368138 -1.139864
2008-09-01 11:00:22 51°14.123 2°50.352 22.924 0.069787 0.368225 -1.139864
2008-09-01 11:01:21 51°14.116 2°50.368 22.9521 0.069787 0.368287 -1.139864
2008-09-01 11:02:20 51°14.107 2°50.386 22.9793 0.069787 0.36833 -1.174688
2008-09-01 11:03:19 51°14.099 2°50.484 22.9996 0.069787 0.368479 -1.174688
2008-09-01 11:04:19 51°14.158 2°50.723 23.0298 0.069787 0.368454 -1.139864
2008-09-01 11:05:18 51°14.218 2°51.016 23.0606 0.069787 0.368448 -1.139864
2008-09-01 11:06:18 51°14.272 2°51.321 22.6987 0.069684 0.36795 -1.139864
2008-09-01 11:07:18 51°14.327 2°51.628 22.8431 0.069684 0.367937 -1.139864
2008-09-01 11:08:18 51°14.382 2°51.936 22.7502 0.069684 0.368018 -1.139864
2008-09-01 11:09:18 51°14.436 2°52.248 22.6785 0.069684 0.368074 -1.174688
2008-09-01 11:10:18 51°14.472 2°52.569 22.8811 0.069684 0.368093 -1.139864
2008-09-01 11:11:18 51°14.507 2°52.879 22.9243 0.069684 0.368142 -1.174688
2008-09-01 11:12:18 51°14.512 2°53.09 22.758 0.069684 0.368167 -1.174688
2008-09-01 11:13:18 51°14.517 2°53.238 22.7813 0.069684 0.368229 -1.139864
2008-09-01 11:14:18 51°14.526 2°53.37 22.8428 0.069684 0.368273 -1.139864
2008-09-01 11:15:18 51°14.53 2°53.502 22.8264 0.069684 0.368322 -1.139864
2008-09-01 11:16:18 51°14.534 2°53.632 22.8623 0.069684 0.368347 -1.174688
2008-09-01 11:17:18 51°14.534 2°53.764 22.8878 0.069684 0.368378 -1.139864
2008-09-01 11:18:18 51°14.53 2°53.873 22.8922 0.069684 0.368416 -1.174688
2008-09-01 11:19:18 51°14.521 2°53.949 22.961 0.069684 0.368459 -1.139864
2008-09-01 11:20:18 51°14.512 2°54.008 22.9074 0.069684 0.368503 -1.174688
2008-09-01 11:21:18 51°14.498 2°54.098 22.9511 0.069684 0.368546 -1.139864
2008-09-01 11:22:18 51°14.496 2°54.251 22.9524 0.069684 0.368571 -1.139864
2008-09-01 11:23:18 51°14.481 2°54.441 22.9506 0.069684 0.368609 -1.174688
2008-09-01 11:24:18 51°14.457 2°54.607 22.9624 0.069684 0.36864 -1.174688
2008-09-01 11:25:18 51°14.413 2°54.854 22.9885 0.069684 0.368659 -1.139864
2008-09-01 11:26:18 51°14.32 2°55.134 22.9916 0.069684 0.368696 -1.139864
2008-09-01 11:27:18 51°14.186 2°55.355 23.0186 0.069581 0.368159 -1.139864
2008-09-01 11:28:18 51°14.072 2°55.458 22.9978 0.069684 0.36874 -1.139864
2008-09-01 11:29:18 51°13.98 2°55.529 23.0114 0.069581 0.368215 -1.139864
2008-09-01 11:30:22 51°13.86 2°55.619 23.0142 0.069581 0.368246 -1.139864
2008-09-01 11:31:22 51°13.762 2°55.706 23.0231 0.069581 0.36829 -1.139864